Home PIREPS Pireps

Flight BEL484

  • Submitted By: Jan Roscam
  • Departure Airport: Heraklion International Airport Nikos Kazantzakis (LGIR)
  • Arrival Airport: Kos Airport (LGKO)
  • Aircraft: CIRRUS SR-20 (OO-JFT)
  • Flight Time: 01.15
  • Date Submitted: 12/09/2017
  • Route: DCT
  • Status: Accepted
Flight Details
Gross Revenue:
(4 load / € 0.00 per unit
€ 0.00
Fuel Cost:
(-3 fuel used @ 0 / unit)
€ 0.00

Additional Log Information:

View Log

Aircraft Used in flight is Cessna Skyhawk 172SP
15:00 Brakes are On
15:00 Brakes are Released
15:01 You Took off @ 67 Knots and Flaps at Position 3
Departure Weather
LGIR 121220Z 33012KT CAVOK 28/21 Q1012 NOSIGrn
16:08 In Air Refuel Suspected
16:15 You Landed @ 39 Knots and with -500 Vertical Speed
Arrival Weather
LGKO 121350Z 20008KT CAVOK 28/17 Q1013rn
16:15 Paused
16:15 Unpaused
16:15 Paused
16:15 Unpaused
16:15 Brussels Bel-Track1.0.1.2

Route Map

Corporate About Us Our Team Vacancies Information Fleet Route Network Rules and Regulations Operations Flight Schedules Event Center Tours Partners IVAO Vatsim Acars dev FSCB

fb Users Online Belgium Glenn Sonck, Belgium Serge Van Laethem,
2 Pilot(s) and 142 Guest(s) Online
CMS by phpVMS - Design by Crazycreatives.com - Copyright © 2018 - Brussels Airlines Virtual